KDCA/DCA METAR and TAF weather

Enter ICAO airport designator
Station Type Date Time Source
KDCA METAR 2018/10/16 19:52 UTC NOAA

KDCA 161952Z 33005KT 10SM SCT180 OVC240 16/04 A3014 RMK AO2 SLP204 T01560039


Station Type Date Time Source
KDCA Decoded METAR 2018/10/16 19:52 UTC NOAA

WASHINGTON NATIONAL AIRPORT , VA, United States (KDCA) 38-51N 077-02W 18M
Oct 16, 2018 - 03:52 PM EDT / 2018.10.16 1952 UTC
Wind: from the NNW (330 degrees) at 6 MPH (5 KT):0
Visibility: 10 mile(s):0
Sky conditions: overcast
Temperature: 60.1 F (15.6 C)
Dew Point: 39.0 F (3.9 C)
Relative Humidity: 45%
Pressure (altimeter): 30.14 in. Hg (1020 hPa)
ob: KDCA 161952Z 33005KT 10SM SCT180 OVC240 16/04 A3014 RMK AO2 SLP204 T01560039
cycle: 20

Station Type Date Time Source
KDCA TAF 2018/10/16 18:22 UTC NOAA

TAF KDCA 161720Z 1618/1724 30007KT P6SM BKN200
FM162100 21006KT P6SM SCT100 BKN200
FM170100 21005KT P6SM BKN035 OVC130
FM170500 21005KT P6SM BKN025 OVC130
FM170800 29005KT P6SM BKN200
FM171300 28010KT P6SM SCT200
FM171700 28015G25KT P6SM FEW250


Example: see airport list